createdAt,value
2019-04-30T00:01:48.599Z,11.19
2019-04-30T00:04:25.387Z,11.16
2019-04-30T00:06:55.799Z,11.12
2019-04-30T00:09:26.747Z,11.10
2019-04-30T00:12:01.064Z,11.09
2019-04-30T00:14:32.490Z,11.08
2019-04-30T00:16:59.462Z,11.07
2019-04-30T00:19:28.853Z,11.05
2019-04-30T00:22:00.886Z,11.04
2019-04-30T00:24:31.614Z,10.99
2019-04-30T00:27:02.150Z,10.99
2019-04-30T00:29:31.560Z,10.97
2019-04-30T00:32:04.535Z,10.95
2019-04-30T00:34:35.885Z,10.94
2019-04-30T00:37:07.428Z,10.92
2019-04-30T00:39:35.893Z,10.88
2019-04-30T00:42:05.582Z,10.87
2019-04-30T00:44:36.510Z,10.87
2019-04-30T00:47:09.065Z,10.87
2019-04-30T00:49:38.570Z,10.85
2019-04-30T00:52:09.598Z,10.85
2019-04-30T00:54:40.223Z,10.86
2019-04-30T00:57:11.323Z,10.84
2019-04-30T00:59:44.651Z,10.80
2019-04-30T01:02:19.967Z,10.78
2019-04-30T01:04:48.756Z,10.78
2019-04-30T01:07:18.714Z,10.75
2019-04-30T01:09:49.858Z,10.74
2019-04-30T01:12:27.658Z,10.71
2019-04-30T01:14:51.139Z,10.65
2019-04-30T01:17:20.726Z,10.56
2019-04-30T01:19:54.280Z,10.49
2019-04-30T01:22:28.171Z,10.47
2019-04-30T01:24:56.542Z,10.45
2019-04-30T01:27:26.209Z,10.44
2019-04-30T01:29:58.491Z,10.42
2019-04-30T01:32:29.013Z,10.40
2019-04-30T01:34:59.016Z,10.35
2019-04-30T01:37:33.046Z,10.30
2019-04-30T01:40:10.580Z,10.28
2019-04-30T01:42:36.065Z,10.28
2019-04-30T01:45:08.754Z,10.28
2019-04-30T01:47:39.706Z,10.28
2019-04-30T01:50:09.339Z,10.28
2019-04-30T01:52:54.821Z,10.24
2019-04-30T01:55:34.487Z,10.24
2019-04-30T01:58:05.502Z,10.28
2019-04-30T02:00:37.112Z,10.29
2019-04-30T02:03:11.208Z,10.32
2019-04-30T02:05:40.782Z,10.34
2019-04-30T02:08:13.419Z,10.29
2019-04-30T02:10:43.460Z,10.19
2019-04-30T02:13:13.118Z,10.19
2019-04-30T02:15:42.803Z,10.20
2019-04-30T02:18:13.205Z,10.21
2019-04-30T02:20:45.350Z,10.20
2019-04-30T02:23:15.030Z,10.20
2019-04-30T02:25:44.840Z,10.14
2019-04-30T02:28:15.977Z,10.14
2019-04-30T02:30:45.368Z,10.14
2019-04-30T02:33:15.042Z,10.11
2019-04-30T02:35:52.250Z,10.10
2019-04-30T02:38:26.483Z,10.10
2019-04-30T02:40:59.604Z,10.10
2019-04-30T02:43:30.230Z,10.06
2019-04-30T02:46:00.173Z,10.09
2019-04-30T02:48:29.909Z,10.08
2019-04-30T02:51:01.170Z,10.06
2019-04-30T02:53:52.033Z,10.01
2019-04-30T02:56:26.536Z,10.01
2019-04-30T02:58:56.154Z,9.96
2019-04-30T03:01:26.185Z,9.94
2019-04-30T03:03:55.866Z,9.91
2019-04-30T03:06:25.225Z,9.90
2019-04-30T03:08:55.648Z,9.81
2019-04-30T03:11:25.164Z,9.81
2019-04-30T03:13:54.529Z,9.79
2019-04-30T03:16:30.322Z,9.77
2019-04-30T03:19:01.647Z,9.71
2019-04-30T03:21:49.990Z,9.71
2019-04-30T03:24:20.742Z,9.67
2019-04-30T03:26:51.761Z,9.64
2019-04-30T03:29:25.510Z,9.67
2019-04-30T03:31:55.030Z,9.66
2019-04-30T03:34:26.500Z,9.66
2019-04-30T03:37:01.664Z,9.63
2019-04-30T03:39:29.682Z,9.57
2019-04-30T03:41:59.828Z,9.56
2019-04-30T03:44:32.337Z,9.56
2019-04-30T03:47:01.423Z,9.57
2019-04-30T03:49:32.667Z,9.56
2019-04-30T03:52:02.159Z,9.56
2019-04-30T03:54:31.814Z,9.57
2019-04-30T03:57:02.602Z,9.55
2019-04-30T03:59:31.973Z,9.54
2019-04-30T04:02:20.868Z,9.54
2019-04-30T04:05:02.421Z,9.57
2019-04-30T04:07:34.909Z,9.57
2019-04-30T04:10:10.265Z,9.53
2019-04-30T04:12:40.142Z,9.53
2019-04-30T04:15:10.706Z,9.55
2019-04-30T04:17:43.424Z,9.57
2019-04-30T04:20:13.377Z,9.56
2019-04-30T04:22:43.875Z,9.60
2019-04-30T04:25:13.537Z,9.74
2019-04-30T04:27:44.158Z,9.88
2019-04-30T04:30:15.514Z,9.88
2019-04-30T04:32:50.093Z,9.97
2019-04-30T04:35:19.974Z,10.11
2019-04-30T04:37:51.868Z,10.26
2019-04-30T04:40:23.792Z,10.37
2019-04-30T04:42:53.188Z,10.37
2019-04-30T04:45:22.576Z,10.32
2019-04-30T04:47:52.472Z,10.16
2019-04-30T04:50:24.510Z,10.16
2019-04-30T04:52:55.015Z,9.97
2019-04-30T04:55:24.404Z,9.97
2019-04-30T04:57:54.108Z,9.88
2019-04-30T05:00:23.504Z,9.83
2019-04-30T05:02:55.362Z,9.74
2019-04-30T05:05:25.004Z,9.74
2019-04-30T05:07:54.516Z,9.77
2019-04-30T05:10:26.099Z,9.80
2019-04-30T05:12:59.286Z,9.83
2019-04-30T05:15:29.522Z,9.90
2019-04-30T05:17:59.340Z,9.99
2019-04-30T05:20:29.545Z,10.05
2019-04-30T05:23:00.300Z,10.12
2019-04-30T05:25:29.723Z,10.19
2019-04-30T05:27:59.197Z,10.23
2019-04-30T05:30:30.278Z,10.23
2019-04-30T05:32:59.696Z,10.21
2019-04-30T05:35:31.002Z,10.16
2019-04-30T05:38:00.580Z,10.06
2019-04-30T05:40:30.914Z,9.99
2019-04-30T05:43:00.490Z,9.98
2019-04-30T05:45:30.365Z,9.98
2019-04-30T05:47:59.776Z,9.95
2019-04-30T05:50:29.750Z,9.94
2019-04-30T05:53:03.448Z,9.88
2019-04-30T05:55:32.831Z,9.75
2019-04-30T05:58:04.440Z,9.67
2019-04-30T06:00:33.828Z,9.62
2019-04-30T06:03:03.347Z,9.56
2019-04-30T06:05:33.827Z,9.56
2019-04-30T06:08:06.040Z,9.66
2019-04-30T06:10:42.150Z,9.77
2019-04-30T06:13:16.113Z,9.78
2019-04-30T06:15:53.031Z,9.84
2019-04-30T06:18:22.703Z,9.92
2019-04-30T06:20:52.324Z,10.11
2019-04-30T06:23:21.694Z,10.29
2019-04-30T06:25:59.315Z,10.40
2019-04-30T06:28:23.765Z,10.40
2019-04-30T06:30:54.613Z,10.39
2019-04-30T06:33:24.304Z,10.46
2019-04-30T06:35:54.627Z,10.51
2019-04-30T06:38:26.043Z,10.50
2019-04-30T06:40:55.494Z,10.31
2019-04-30T06:43:24.875Z,10.31
2019-04-30T06:45:54.609Z,10.21
2019-04-30T06:48:29.391Z,10.18
2019-04-30T06:50:59.782Z,10.14
2019-04-30T06:53:29.411Z,10.20
2019-04-30T06:55:59.210Z,10.37
2019-04-30T06:58:29.222Z,10.55
2019-04-30T07:00:59.582Z,10.69
2019-04-30T07:03:29.617Z,10.62
2019-04-30T07:06:03.247Z,10.50
2019-04-30T07:08:47.136Z,10.35
2019-04-30T07:11:21.722Z,10.35
2019-04-30T07:13:52.581Z,10.39
2019-04-30T07:16:23.642Z,10.44
2019-04-30T07:18:53.331Z,10.52
2019-04-30T07:21:26.203Z,10.63
2019-04-30T07:23:55.820Z,10.74
2019-04-30T07:26:25.760Z,10.82
2019-04-30T07:28:55.676Z,10.85
2019-04-30T07:31:25.464Z,10.87
2019-04-30T07:33:54.838Z,11.01
2019-04-30T07:36:42.427Z,11.17
2019-04-30T07:38:57.032Z,11.33
2019-04-30T07:44:01.075Z,11.51
2019-04-30T07:46:35.114Z,11.59
2019-04-30T07:49:04.730Z,11.51
2019-04-30T07:51:40.252Z,11.40
2019-04-30T07:54:09.292Z,11.45
2019-04-30T07:56:41.732Z,11.61
2019-04-30T07:59:12.004Z,11.64
2019-04-30T08:02:00.568Z,11.59
2019-04-30T08:04:19.602Z,11.59
2019-04-30T08:06:51.504Z,11.67
2019-04-30T08:09:22.704Z,11.93
2019-04-30T08:09:38.317Z,11.46
2019-04-30T08:11:52.090Z,12.27
2019-04-30T08:14:24.487Z,12.63
2019-04-30T08:16:52.912Z,12.81
2019-04-30T08:19:22.858Z,12.93
2019-04-30T08:21:55.084Z,13.04
2019-04-30T08:24:29.209Z,13.02
2019-04-30T08:27:01.306Z,13.02
2019-04-30T08:29:33.951Z,12.92
2019-04-30T08:32:03.618Z,12.87
2019-04-30T08:34:35.345Z,13.06
2019-04-30T08:37:16.684Z,13.25
2019-04-30T08:39:36.195Z,13.46
2019-04-30T08:42:05.959Z,13.71
2019-04-30T08:44:36.880Z,13.93
2019-04-30T08:47:06.241Z,14.19
2019-04-30T08:49:36.250Z,14.58
2019-04-30T08:52:06.186Z,14.81
2019-04-30T08:54:35.917Z,14.84
2019-04-30T08:57:06.186Z,14.37
2019-04-30T08:59:39.491Z,13.99
2019-04-30T09:02:15.944Z,13.93
2019-04-30T09:04:40.873Z,14.13
2019-04-30T09:07:12.374Z,14.52
2019-04-30T09:09:44.698Z,14.80
2019-04-30T09:12:16.107Z,15.00
2019-04-30T09:14:49.021Z,15.19
2019-04-30T09:17:21.925Z,15.54
2019-04-30T09:19:51.653Z,15.89
2019-04-30T09:22:22.325Z,15.97
2019-04-30T09:24:51.910Z,15.98
2019-04-30T09:27:22.747Z,16.03
2019-04-30T09:29:52.165Z,15.97
2019-04-30T09:32:22.168Z,16.01
2019-04-30T09:34:53.494Z,16.18
2019-04-30T09:37:24.929Z,16.40
2019-04-30T09:39:54.346Z,16.72
2019-04-30T09:42:24.050Z,16.92
2019-04-30T09:44:57.253Z,17.19
2019-04-30T09:47:29.550Z,17.48
2019-04-30T09:50:00.015Z,17.70
2019-04-30T09:52:31.704Z,17.57
2019-04-30T09:55:02.206Z,17.51
2019-04-30T09:57:31.953Z,17.31
2019-04-30T10:00:01.643Z,17.34
2019-04-30T10:02:32.851Z,17.42
2019-04-30T10:05:02.944Z,17.54
2019-04-30T10:07:34.099Z,17.67
2019-04-30T10:10:08.865Z,17.71
2019-04-30T10:12:39.152Z,17.86
2019-04-30T10:15:13.712Z,18.10
2019-04-30T10:17:50.930Z,18.51
2019-04-30T10:20:26.075Z,18.82
2019-04-30T10:22:57.002Z,18.79
2019-04-30T10:25:28.277Z,18.85
2019-04-30T10:27:59.829Z,19.03
2019-04-30T10:30:33.023Z,19.19
2019-04-30T10:33:02.415Z,19.32
2019-04-30T10:35:32.961Z,19.47
2019-04-30T10:38:03.468Z,19.68
2019-04-30T10:40:33.058Z,19.78
2019-04-30T10:43:02.503Z,19.76
2019-04-30T10:45:32.061Z,19.80
2019-04-30T10:48:02.989Z,19.96
2019-04-30T10:50:32.354Z,19.91
2019-04-30T10:53:02.612Z,19.78
2019-04-30T10:55:33.625Z,19.72
2019-04-30T10:58:03.149Z,19.74
2019-04-30T11:00:38.954Z,19.86
2019-04-30T11:03:19.598Z,19.78
2019-04-30T11:05:41.261Z,19.80
2019-04-30T11:08:13.062Z,20.02
2019-04-30T11:10:44.133Z,19.91
2019-04-30T11:13:14.204Z,20.03
2019-04-30T11:15:44.541Z,20.33
2019-04-30T11:18:14.563Z,20.51
2019-04-30T11:20:44.976Z,20.70
2019-04-30T11:23:15.239Z,20.91
2019-04-30T11:25:45.400Z,21.10
2019-04-30T11:28:15.893Z,21.10
2019-04-30T11:30:46.254Z,21.22
2019-04-30T11:33:17.153Z,21.49
2019-04-30T11:35:47.016Z,21.62
2019-04-30T11:38:20.391Z,21.56
2019-04-30T11:40:49.026Z,21.49
2019-04-30T11:43:20.185Z,21.46
2019-04-30T11:45:55.717Z,21.63
2019-04-30T11:48:26.809Z,21.79
2019-04-30T11:50:59.523Z,22.04
2019-04-30T11:53:30.684Z,22.21
2019-04-30T11:56:00.472Z,22.18
2019-04-30T11:58:30.589Z,22.13
2019-04-30T12:01:02.618Z,22.18
2019-04-30T12:03:33.912Z,22.40
2019-04-30T12:06:04.821Z,22.68
2019-04-30T12:08:52.574Z,22.98
2019-04-30T12:11:42.270Z,23.19
2019-04-30T12:14:12.557Z,23.29
2019-04-30T12:16:43.198Z,23.40
2019-04-30T12:19:12.655Z,23.38
2019-04-30T12:21:42.173Z,23.35
2019-04-30T12:24:12.534Z,23.39
2019-04-30T12:51:45.838Z,23.34
2019-04-30T12:54:14.230Z,23.30
2019-04-30T12:56:51.272Z,23.16
2019-04-30T12:59:21.303Z,22.95
2019-04-30T13:01:50.662Z,22.91
2019-04-30T13:04:20.591Z,22.91
2019-04-30T13:06:51.054Z,23.24
2019-04-30T13:09:21.446Z,23.56
2019-04-30T13:11:52.078Z,23.73
2019-04-30T13:14:22.885Z,23.79
2019-04-30T13:16:52.731Z,23.83
2019-04-30T13:19:22.986Z,23.96
2019-04-30T13:21:52.354Z,23.93
2019-04-30T13:24:22.472Z,23.83
2019-04-30T13:26:51.864Z,23.75
2019-04-30T13:29:25.860Z,23.79
2019-04-30T13:31:58.246Z,23.80
2019-04-30T13:34:45.647Z,23.86
2019-04-30T13:37:15.283Z,23.76
2019-04-30T13:39:55.261Z,23.63
2019-04-30T13:42:35.337Z,23.60
2019-04-30T13:45:07.076Z,23.69
2019-04-30T13:47:36.437Z,23.81
2019-04-30T13:50:06.511Z,23.86
2019-04-30T13:52:35.875Z,23.82
2019-04-30T13:55:10.721Z,23.56
2019-04-30T13:57:38.722Z,23.38
2019-04-30T14:00:11.964Z,23.40
2019-04-30T14:02:44.794Z,23.58
2019-04-30T14:05:16.380Z,23.82
2019-04-30T14:07:56.421Z,23.96
2019-04-30T14:10:25.802Z,23.96
2019-04-30T14:12:57.000Z,24.06
2019-04-30T14:15:26.752Z,24.16
2019-04-30T14:17:56.629Z,24.13
2019-04-30T14:20:26.668Z,24.12
2019-04-30T14:22:57.546Z,24.14
2019-04-30T14:25:26.992Z,24.18
2019-04-30T14:27:56.459Z,24.17
2019-04-30T14:30:26.373Z,24.10
2019-04-30T14:32:55.738Z,23.85
2019-04-30T14:35:25.122Z,23.37
2019-04-30T14:37:54.514Z,23.19
2019-04-30T14:40:24.782Z,23.22
2019-04-30T14:42:59.751Z,23.13
2019-04-30T14:45:40.628Z,23.09
2019-04-30T14:48:12.917Z,23.06
2019-04-30T14:50:42.831Z,23.02
2019-04-30T14:53:14.480Z,22.96
2019-04-30T14:55:49.549Z,23.04
2019-04-30T14:58:29.546Z,23.23
2019-04-30T15:01:06.168Z,23.39
2019-04-30T15:03:36.598Z,23.48
2019-04-30T15:06:05.993Z,23.53
2019-04-30T15:08:36.598Z,23.58
2019-04-30T15:11:05.984Z,23.59
2019-04-30T15:13:35.587Z,23.58
2019-04-30T15:16:35.358Z,23.59
2019-04-30T15:19:04.864Z,23.56
2019-04-30T15:21:34.524Z,23.44
2019-04-30T15:24:21.610Z,23.49
2019-04-30T15:26:57.573Z,23.55
2019-04-30T15:29:23.129Z,23.59
2019-04-30T15:31:52.758Z,23.58
2019-04-30T15:34:22.731Z,23.50
2019-04-30T15:36:52.114Z,23.39
2019-04-30T15:39:26.654Z,23.33
2019-04-30T15:41:56.019Z,23.37
2019-04-30T15:44:25.931Z,23.33
2019-04-30T15:46:55.782Z,23.30
2019-04-30T15:49:25.429Z,23.25
2019-04-30T15:51:54.827Z,23.18
2019-04-30T15:54:24.511Z,23.03
2019-04-30T15:56:53.911Z,22.87
2019-04-30T15:59:24.979Z,22.83
2019-04-30T16:01:56.435Z,22.85
2019-04-30T16:04:44.556Z,22.88
2019-04-30T16:07:14.087Z,22.83
2019-04-30T16:09:51.633Z,22.78
2019-04-30T16:12:22.667Z,22.77
2019-04-30T16:14:52.045Z,22.68
2019-04-30T16:17:23.467Z,22.59
2019-04-30T16:19:52.867Z,22.53
2019-04-30T16:22:22.337Z,22.48
2019-04-30T16:24:54.443Z,22.43
2019-04-30T16:27:22.863Z,22.40
2019-04-30T16:29:52.257Z,22.35
2019-04-30T16:32:24.639Z,22.24
2019-04-30T16:34:54.019Z,22.00
2019-04-30T16:37:23.687Z,21.87
2019-04-30T16:39:53.088Z,21.77
2019-04-30T16:42:22.712Z,21.68
2019-04-30T16:44:52.097Z,21.65
2019-04-30T16:47:21.775Z,21.46
2019-04-30T16:49:51.183Z,21.46
2019-04-30T16:52:21.202Z,21.38
2019-04-30T16:54:50.804Z,21.29
2019-04-30T16:57:20.514Z,21.17
2019-04-30T16:59:51.032Z,21.13
2019-04-30T17:02:22.698Z,21.13
2019-04-30T17:04:56.126Z,21.16
2019-04-30T17:07:30.212Z,21.12
2019-04-30T17:10:09.021Z,21.03
2019-04-30T17:12:43.293Z,21.00
2019-04-30T17:15:14.912Z,20.96
2019-04-30T17:17:44.296Z,20.90
2019-04-30T17:20:14.612Z,20.83
2019-04-30T17:22:43.987Z,20.79
2019-04-30T17:25:13.745Z,20.77
2019-04-30T17:27:43.386Z,20.70
2019-04-30T17:30:13.649Z,20.68
2019-04-30T17:32:43.021Z,20.60
2019-04-30T17:35:13.390Z,20.59
2019-04-30T17:37:43.001Z,20.59
2019-04-30T17:40:13.323Z,20.56
2019-04-30T17:42:42.952Z,20.50
2019-04-30T17:45:13.453Z,20.45
2019-04-30T17:47:43.297Z,20.39
2019-04-30T17:50:13.770Z,20.28
2019-04-30T17:52:43.158Z,20.15
2019-04-30T17:55:13.616Z,20.03
2019-04-30T17:57:43.006Z,19.94
2019-04-30T18:00:19.998Z,19.86
2019-04-30T18:02:46.490Z,19.69
2019-04-30T18:05:16.275Z,19.69
2019-04-30T18:07:45.916Z,19.62
2019-04-30T18:10:17.037Z,19.57
2019-04-30T18:12:46.436Z,19.47
2019-04-30T18:15:17.933Z,19.40
2019-04-30T18:17:49.034Z,19.32
2019-04-30T18:20:36.712Z,19.26
2019-04-30T18:23:24.314Z,19.17
2019-04-30T18:26:01.424Z,19.03
2019-04-30T18:28:31.098Z,18.88
2019-04-30T18:31:00.485Z,18.79
2019-04-30T18:33:30.066Z,18.70
2019-04-30T18:35:59.731Z,18.60
2019-04-30T18:38:31.131Z,18.52
2019-04-30T18:41:00.596Z,18.45
2019-04-30T18:43:30.160Z,18.40
2019-04-30T18:46:00.683Z,18.34
2019-04-30T18:48:30.384Z,18.28
2019-04-30T18:51:00.027Z,18.23
2019-04-30T18:53:31.346Z,18.20
2019-04-30T18:56:01.293Z,18.15
2019-04-30T18:58:39.210Z,18.05
2019-04-30T19:01:02.305Z,17.96
2019-04-30T19:03:32.020Z,17.86
2019-04-30T19:06:03.060Z,17.74
2019-04-30T19:08:50.023Z,17.64
2019-04-30T19:11:30.716Z,17.57
2019-04-30T19:14:09.422Z,17.45
2019-04-30T19:16:46.613Z,17.30
2019-04-30T19:19:19.554Z,17.17
2019-04-30T19:21:49.223Z,17.08
2019-04-30T19:24:19.715Z,17.02
2019-04-30T19:26:50.362Z,16.97
2019-04-30T19:29:20.032Z,16.92
2019-04-30T19:31:49.533Z,16.85
2019-04-30T19:34:19.169Z,16.79
2019-04-30T19:36:49.225Z,16.74
2019-04-30T19:39:20.093Z,16.66
2019-04-30T19:41:50.539Z,16.58
2019-04-30T19:44:21.092Z,16.51
2019-04-30T19:46:50.876Z,16.45
2019-04-30T19:49:20.581Z,16.38
2019-04-30T19:51:53.137Z,16.36
2019-04-30T19:54:22.527Z,16.34
2019-04-30T19:56:52.071Z,16.29
2019-04-30T19:59:21.431Z,16.27
2019-04-30T20:01:50.994Z,16.26
2019-04-30T20:04:32.796Z,16.23
2019-04-30T20:06:52.169Z,16.24
2019-04-30T20:09:21.908Z,16.23
2019-04-30T20:11:51.403Z,16.21
2019-04-30T20:14:21.055Z,16.19
2019-04-30T20:16:50.428Z,16.17
2019-04-30T20:19:20.145Z,16.12
2019-04-30T20:21:53.668Z,16.08
2019-04-30T20:24:21.256Z,16.06
2019-04-30T20:26:58.277Z,16.03
2019-04-30T20:29:22.318Z,15.98
2019-04-30T20:31:52.051Z,15.95
2019-04-30T20:34:21.437Z,15.93
2019-04-30T20:36:51.116Z,15.85
2019-04-30T20:39:23.445Z,15.85
2019-04-30T20:41:53.382Z,15.78
2019-04-30T20:44:23.078Z,15.72
2019-04-30T20:46:52.461Z,15.68
2019-04-30T20:49:21.852Z,15.61
2019-04-30T20:51:55.246Z,15.54
2019-04-30T20:54:22.656Z,15.50
2019-04-30T20:56:52.143Z,15.48
2019-04-30T20:59:21.538Z,15.42
2019-04-30T21:01:51.101Z,15.34
2019-04-30T21:04:21.049Z,15.26
2019-04-30T21:06:50.775Z,15.14
2019-04-30T21:09:20.507Z,15.05
2019-04-30T21:11:50.211Z,15.00
2019-04-30T21:14:19.610Z,14.96
2019-04-30T21:16:49.163Z,14.92
2019-04-30T21:19:18.839Z,14.89
2019-04-30T21:21:49.714Z,14.87
2019-04-30T21:24:19.484Z,14.85
2019-04-30T21:26:49.450Z,14.86
2019-04-30T21:29:19.813Z,14.86
2019-04-30T21:32:03.195Z,14.87
2019-04-30T21:34:34.225Z,14.85
2019-04-30T21:37:03.603Z,14.78
2019-04-30T21:39:33.588Z,14.68
2019-04-30T21:42:03.275Z,14.65
2019-04-30T21:44:32.675Z,14.56
2019-04-30T21:47:03.245Z,14.47
2019-04-30T21:49:32.626Z,14.40
2019-04-30T21:52:02.307Z,14.34
2019-04-30T21:54:31.706Z,14.27
2019-04-30T21:57:01.387Z,14.21
2019-04-30T21:59:30.750Z,14.19
2019-04-30T22:02:00.330Z,14.16
2019-04-30T22:04:29.714Z,14.11
2019-04-30T22:06:59.598Z,14.08
2019-04-30T22:09:29.639Z,14.05
2019-04-30T22:11:59.351Z,14.02
2019-04-30T22:14:29.025Z,13.92
2019-04-30T22:16:59.381Z,13.92
2019-04-30T22:19:28.958Z,13.91
2019-04-30T22:21:59.475Z,13.88
2019-04-30T22:24:30.508Z,13.84
2019-04-30T22:27:01.351Z,13.75
2019-04-30T22:29:39.093Z,13.75
2019-04-30T22:32:01.887Z,13.76
2019-04-30T22:34:31.319Z,13.72
2019-04-30T22:37:00.689Z,13.64
2019-04-30T22:39:32.013Z,13.57
2019-04-30T22:42:20.710Z,13.51
2019-04-30T22:44:50.454Z,13.40
2019-04-30T22:47:19.824Z,13.32
2019-04-30T22:49:49.434Z,13.28
2019-04-30T22:52:21.782Z,13.24
2019-04-30T22:54:50.539Z,13.22
2019-04-30T22:57:19.903Z,13.19
2019-04-30T22:59:50.254Z,13.13
2019-04-30T23:02:30.084Z,13.03
2019-04-30T23:05:01.058Z,12.95
2019-04-30T23:07:31.499Z,12.88
2019-04-30T23:10:00.896Z,12.85
2019-04-30T23:12:30.518Z,12.83
2019-04-30T23:14:59.912Z,12.81
2019-04-30T23:17:29.581Z,12.76
2019-04-30T23:19:58.984Z,12.72
2019-04-30T23:22:28.673Z,12.64
2019-04-30T23:24:58.059Z,12.56
2019-04-30T23:27:27.755Z,12.49
2019-04-30T23:30:03.448Z,12.35
2019-04-30T23:32:28.524Z,12.35
2019-04-30T23:34:57.904Z,12.37
2019-04-30T23:37:28.102Z,12.38
2019-04-30T23:40:01.212Z,12.36
2019-04-30T23:42:30.588Z,12.36
2019-04-30T23:44:59.989Z,12.36
2019-04-30T23:47:29.481Z,12.35
2019-04-30T23:49:58.884Z,12.37
2019-04-30T23:52:28.262Z,12.40
2019-04-30T23:54:58.047Z,12.37
2019-04-30T23:57:27.729Z,12.36
2019-04-30T23:59:57.439Z,12.35
